• Join FlightAware (Why Join?)
  • Login
  • US Flag 
05:01PM EST


 

Airport Tracker/Info


-or-


 

Live Flight TrackerFlight Track Log ✈ N177YB ✈ 24-Apr-2013 ✈ KWHP - KHND

Flight Track Log - Related Links

Times and Time Zones

All times are in EDT time to prevent confusion due to time zone crossing. See the N177YB flight status page for this flight to view local times or setup timezone preferences in your user account.

Time Position Orientation Groundspeed Altitude Reporting Facility
EDT Latitude Longitude Course Direction KTS MPH feet Rate Location/Type
08:02PM 34.2667 -118.4333 270° West 70 81 1,800  Level Southern California TRACON
08:03PM 34.2667 -118.4667 270° West 71 82 2,400 600 Climbing Southern California TRACON
08:04PM 34.2667 -118.4833 270° West 71 82 3,000 600 Climbing Southern California TRACON
08:05PM 34.2667 -118.5167 270° West 73 84 3,600 480 Climbing Southern California TRACON
08:06PM 34.2833 -118.5333 320° Northwest 86 99 4,000 420 Climbing Southern California TRACON
08:07PM 34.3000 -118.5333 360° North 84 97 4,500 360 Climbing Southern California TRACON
08:08PM 34.3000 -118.5500 270° West 78 90 4,800 420 Climbing Southern California TRACON
08:09PM 34.3000 -118.5333 90° East 73 84 5,400 480 Climbing Southern California TRACON
08:10PM 34.3167 -118.5167 40° Northeast 80 92 5,800 300 Climbing Southern California TRACON
08:11PM 34.3333 -118.5000 40° Northeast 81 93 6,100 300 Climbing Southern California TRACON
08:12PM 34.3500 -118.5000 360° North 84 97 6,400 420 Climbing Southern California TRACON
08:13PM 34.3667 -118.4833 40° Northeast 85 98 7,000 360 Climbing Southern California TRACON
08:14PM 34.3853 -118.4683 34° Northeast 86 99 7,100 120 Climbing Los Angeles Center
08:15PM 34.3975 -118.4492 52° Northeast 75 86 7,300 240 Climbing Los Angeles Center
08:16PM 34.4069 -118.4233 66° East 71 82 7,700 360 Climbing Los Angeles Center
08:17PM 34.4092 -118.4014 83° East 68 78 8,100 300 Climbing Los Angeles Center
08:18PM 34.4136 -118.3778 77° East 61 70 8,500 300 Climbing Los Angeles Center
08:19PM 34.4189 -118.3581 72° East 61 70 8,800 240 Climbing Los Angeles Center
08:21PM 34.4253 -118.3358 71° East 68 78 9,000 120 Climbing Los Angeles Center
08:22PM 34.4294 -118.3097 79° East 77 89 9,100  Climbing Los Angeles Center
08:23PM 34.4375 -118.2753 74° East 89 102 9,100  Level Los Angeles Center
08:24PM 34.4442 -118.2458 75° East 92 106 9,100  Level Los Angeles Center
08:25PM 34.4500 -118.2172 76° East 90 104 9,100  Level Los Angeles Center
08:26PM 34.4550 -118.1833 80° East 102 117 9,200  Climbing Los Angeles Center
08:27PM 34.4619 -118.1544 74° East 92 106 9,100 -60 Descending Los Angeles Center
08:28PM 34.4731 -118.1239 66° East 92 106 9,100  Level Los Angeles Center
08:29PM 34.4806 -118.0942 73° East 92 106 9,100  Level Los Angeles Center
08:30PM 34.4878 -118.0650 73° East 91 105 9,100 -60 Level Los Angeles Center
08:31PM 34.4925 -118.0350 79° East 91 105 9,000 -60 Descending Los Angeles Center
08:32PM 34.4961 -117.9986 83° East 90 104 9,000  Level Los Angeles Center
08:33PM 34.5011 -117.9694 78° East 90 104 9,100  Climbing Los Angeles Center
08:34PM 34.5061 -117.9406 78° East 90 104 9,000 -60 Descending Los Angeles Center
08:35PM 34.5114 -117.9128 77° East 87 100 9,000  Level Los Angeles Center
08:36PM 34.5161 -117.8847 78° East 85 98 9,000 -60 Level Los Angeles Center
08:37PM 34.5197 -117.8567 81° East 85 98 8,900  Descending Los Angeles Center
08:38PM 34.5250 -117.8272 78° East 78 90 9,000 60 Climbing Los Angeles Center
08:39PM 34.5308 -117.7997 76° East 80 92 9,100 60 Climbing Los Angeles Center
08:40PM 34.5361 -117.7689 78° East 86 99 9,200  Climbing Los Angeles Center
08:41PM 34.5428 -117.7367 76° East 92 106 9,100 -120 Descending Los Angeles Center
08:42PM 34.5475 -117.7061 79° East 93 107 9,000 -120 Descending Los Angeles Center
08:43PM 34.5500 -117.6739 85° East 86 99 8,900  Descending Los Angeles Center
08:44PM 34.5564 -117.6469 74° East 83 96 9,100 60 Climbing Los Angeles Center
08:45PM 34.5619 -117.6211 75° East 82 94 9,100  Level Los Angeles Center
08:46PM 34.5656 -117.5917 82° East 84 97 9,100  Level Los Angeles Center
08:47PM 34.5717 -117.5628 76° East 86 99 9,100  Level Los Angeles Center
08:48PM 34.5786 -117.5342 74° East 88 101 9,100  Level Los Angeles Center
08:50PM 34.5886 -117.5019 69° East 87 100 9,100  Level Los Angeles Center
08:51PM 34.5942 -117.4750 76° East 85 98 9,200  Climbing Los Angeles Center
08:52PM 34.6006 -117.4489 73° East 83 96 9,200 -60 Level Los Angeles Center
08:53PM 34.6103 -117.4136 71° East 86 99 9,100 -120 Descending Los Angeles Center
08:54PM 34.6192 -117.3889 66° East 86 99 9,000  Descending Los Angeles Center
08:55PM 34.6283 -117.3606 69° East 80 92 9,200  Climbing Los Angeles Center
08:56PM 34.6347 -117.3325 75° East 82 94 9,100 -120 Descending Los Angeles Center
08:57PM 34.6411 -117.3056 74° East 83 96 9,000 -180 Descending Los Angeles Center
08:58PM 34.6475 -117.2806 73° East 82 94 8,800 60 Descending Los Angeles Center
08:59PM 34.6522 -117.2578 76° East 76 87 9,200 60 Climbing Los Angeles Center
09:00PM 34.6589 -117.2311 73° East 77 89 9,000 -60 Descending Los Angeles Center
09:01PM 34.6661 -117.2050 71° East 80 92 9,100  Climbing Los Angeles Center
09:02PM 34.6719 -117.1767 76° East 76 87 9,100  Level Los Angeles Center
09:03PM 34.6764 -117.1497 79° East 78 90 9,200  Climbing Los Angeles Center
09:04PM 34.6825 -117.1228 75° East 80 92 9,100 -60 Descending Los Angeles Center
09:05PM 34.6886 -117.0942 75° East 83 96 9,100 -120 Level Los Angeles Center
09:06PM 34.6950 -117.0681 73° East 84 97 8,900 -300 Descending Los Angeles Center
09:07PM 34.7039 -117.0328 73° East 86 99 8,500 -420 Descending Los Angeles Center
09:08PM 34.7108 -117.0003 75° East 92 106 8,100 -480 Descending Los Angeles Center
09:09PM 34.7175 -116.9703 75° East 94 108 7,600 -300 Descending Los Angeles Center
09:10PM 34.7217 -116.9411 80° East 92 106 7,600  Level Los Angeles Center
09:11PM 34.7261 -116.9119 79° East 90 104 7,600  Level Los Angeles Center
09:12PM 34.7306 -116.8844 79° East 87 100 7,600 -60 Level Los Angeles Center
09:13PM 34.7369 -116.8497 77° East 87 100 7,500  Descending Los Angeles Center
09:14PM 34.7428 -116.8236 75° East 84 97 7,600  Climbing Los Angeles Center
09:16PM 34.7494 -116.7967 73° East 83 96 7,500  Descending Los Angeles Center
09:17PM 34.7553 -116.7700 75° East 83 96 7,600  Climbing Los Angeles Center
09:18PM 34.7647 -116.7458 65° Northeast 81 93 7,500  Descending Los Angeles Center
09:19PM 34.7881 -116.7292 30° Northeast 89 102 7,600  Climbing Los Angeles Center
09:20PM 34.8067 -116.7075 44° Northeast 92 106 7,600  Level Los Angeles Center
09:21PM 34.8267 -116.6794 49° Northeast 93 107 7,600  Level Los Angeles Center
09:22PM 34.8417 -116.6564 52° Northeast 91 105 7,600  Level Los Angeles Center
09:23PM 34.8572 -116.6336 50° Northeast 89 102 7,600  Level Los Angeles Center
09:24PM 34.8731 -116.6094 51° Northeast 90 104 7,700  Climbing Los Angeles Center
09:25PM 34.8889 -116.5850 52° Northeast 91 105 7,600 -60 Descending Los Angeles Center
09:26PM 34.9075 -116.5536 54° Northeast 93 107 7,600  Level Los Angeles Center
09:27PM 34.9281 -116.5239 50° Northeast 94 108 7,700  Climbing Los Angeles Center
09:29PM 34.8878 -116.5033 157° South  Level FlightAware Approximate
09:29PM 34.9617 -116.4717 157° South 97 112 7,700  Level Los Angeles Center
09:30PM 34.9778 -116.4453 53° Northeast 98 113 7,600 -60 Descending Los Angeles Center
09:31PM 34.9922 -116.4281 44° Northeast 96 110 7,600  Level Los Angeles Center
09:32PM 35.0100 -116.3992 53° Northeast 92 106 7,700 60 Climbing Los Angeles Center
09:33PM 35.0258 -116.3728 54° Northeast 93 107 7,800 -60 Climbing Los Angeles Center
09:34PM 35.0467 -116.3397 52° Northeast 98 113 7,600 -120 Descending Los Angeles Center
09:35PM 35.0642 -116.3147 49° Northeast 99 114 7,600  Level Los Angeles Center
09:36PM 35.0817 -116.2908 48° Northeast 96 110 7,700  Climbing Los Angeles Center
09:37PM 35.1033 -116.2692 39° Northeast 96 110 7,700  Level Los Angeles Center
09:38PM 35.1258 -116.2461 40° Northeast 100 115 7,700  Level Los Angeles Center
09:39PM 35.1467 -116.2242 41° Northeast 100 115 7,800 -60 Climbing Los Angeles Center
09:40PM 35.1678 -116.2000 43° Northeast 102 117 7,600 -120 Descending Los Angeles Center
09:41PM 35.1908 -116.1742 42° Northeast 99 114 7,600  Level Los Angeles Center
09:42PM 35.2106 -116.1528 42° Northeast 97 112 7,600  Level Los Angeles Center
09:43PM 35.2297 -116.1300 44° Northeast 96 110 7,600  Level Los Angeles Center
09:45PM 35.2456 -116.1042 53° Northeast 97 112 7,700 60 Climbing Los Angeles Center
09:47PM 35.2690 -116.0380 67° East  Level FlightAware Approximate
09:54PM 35.3822 -115.8201 52° Northeast  Level FlightAware Approximate
09:55PM 35.4002 -115.7915 52° Northeast  Level FlightAware Approximate
09:56PM 35.4182 -115.7629 52° Northeast  Level FlightAware Approximate
09:57PM 35.4362 -115.7343 52° Northeast  Level FlightAware Approximate
09:58PM 35.4543 -115.7057 52° Northeast  Level FlightAware Approximate
09:59PM 35.4723 -115.6771 52° Northeast  Level FlightAware Approximate
10:00PM 35.4902 -115.6485 52° Northeast  Level FlightAware Approximate
10:01PM 35.5082 -115.6198 52° Northeast  Level FlightAware Approximate
10:02PM 35.5262 -115.5912 52° Northeast  Level FlightAware Approximate
10:03PM 35.5442 -115.5625 52° Northeast  Level FlightAware Approximate
10:04PM 35.5622 -115.5338 52° Northeast  Level FlightAware Approximate
10:05PM 35.5801 -115.5051 52° Northeast  Level FlightAware Approximate
10:06PM 35.5986 -115.4769 51° Northeast  Level FlightAware Approximate
10:07PM 35.6171 -115.4487 51° Northeast  Level FlightAware Approximate
10:08PM 35.6357 -115.4206 51° Northeast  Level FlightAware Approximate
10:09PM 35.6542 -115.3924 51° Northeast  Level FlightAware Approximate
10:10PM 35.6728 -115.3642 51° Northeast  Level FlightAware Approximate
10:11PM 35.6913 -115.3360 51° Northeast  Level FlightAware Approximate
10:12PM 35.7098 -115.3078 51° Northeast  Level FlightAware Approximate
10:13PM 35.7283 -115.2796 51° Northeast  Level FlightAware Approximate
10:14PM 35.7468 -115.2513 51° Northeast  Level FlightAware Approximate
10:15PM 35.7653 -115.2231 51° Northeast  Level FlightAware Approximate
10:16PM 35.7838 -115.1948 51° Northeast  Level FlightAware Approximate
10:17PM 35.8023 -115.1665 51° Northeast  Level FlightAware Approximate
10:18PM 35.8208 -115.1383 51° Northeast  Level FlightAware Approximate
10:19PM 35.8392 -115.1100 51° Northeast  Level FlightAware Approximate
10:20PM 35.8577 -115.0816 51° Northeast  Level FlightAware Approximate
10:21PM 35.8761 -115.0533 51° Northeast  Level FlightAware Approximate
10:22PM 35.8946 -115.0250 51° Northeast  Level FlightAware Approximate
10:23PM 35.9127 -114.9963 52° Northeast  Level FlightAware Approximate
10:24PM 35.9307 -114.9676 52° Northeast  Level FlightAware Approximate
10:25PM 35.9487 -114.9388 52° Northeast  Level FlightAware Approximate
10:26PM 35.9667 -114.9099 52° Northeast  Level FlightAware Approximate
10:27PM 35.9833 -114.8861 270° West  Level FlightAware Approximate
10:28PM 35.9833 -114.9225 270° West  Level FlightAware Approximate
10:29PM 35.9833 -114.9589 270° West  Level FlightAware Approximate
10:30PM 35.9833 -114.9953 270° West  Level FlightAware Approximate
10:31PM 35.9794 -115.0314 261° West  Level FlightAware Approximate
10:32PM 35.9749 -115.0673 261° West  Level FlightAware Approximate
10:33PM 35.9704 -115.1033 261° West  Level FlightAware Approximate
10:34PM 35.9667 -115.1333 261° West  Level FlightAware Approximate
10:35PM 35.9729 -115.1344 261° West  Level Estimated
10:36PM 35.9667 -115.1333 261° West  Level FlightAware Approximate
10:37PM 35.9729 -115.1344 261° West  Level Estimated
10:38PM 35.9667 -115.1333 261° West  Level FlightAware Approximate
10:39PM 35.9729 -115.1344 261° West  Level Estimated
10:40PM 35.9667 -115.1333 261° West  Level FlightAware Approximate
10:41PM 35.9729 -115.1344 261° West  Level Estimated
10:42PM 35.9667 -115.1333 261° West  Level FlightAware Approximate
10:43PM 35.9729 -115.1344 261° West  Level Estimated
10:44PM 35.9667 -115.1333 261° West  Level FlightAware Approximate
10:45PM 35.9729 -115.1344 261° West  Level Estimated
10:46PM 35.9667 -115.1333 261° West  Level FlightAware Approximate
10:47PM 35.9729 -115.1344 261° West  Level Estimated
10:48PM 35.9667 -115.1333 261° West  Level FlightAware Approximate
10:49PM 35.9729 -115.1344 261° West  Level Estimated
10:50PM 35.9667 -115.1333 261° West  Level FlightAware Approximate
10:51PM 35.9729 -115.1344 261° West  Level Estimated
10:52PM 35.9667 -115.1333 261° West  Level FlightAware Approximate
10:53PM 35.9729 -115.1344 261° West  Level Estimated
10:54PM 35.9667 -115.1333 261° West  Level FlightAware Approximate
10:55PM 35.9729 -115.1344 261° West  Level Estimated
10:56PM 35.9667 -115.1333 261° West  Level FlightAware Approximate
10:57PM 35.9729 -115.1344 261° West  Level Estimated
10:58PM 35.9667 -115.1333 261° West  Level FlightAware Approximate